»·PEaware :: N7GL KFAT-KSBA

N7GL :: KFAT-KSBA

FLIGHT INFORMATION

Flight Status: Arrived
Operator: Privately registered:
United States
More flights under this callsign
Pilot: Georg L. (13308)
Aircraft: BEECH AIRCRAFT SUPER KING AIR 350
(B350)
More flights by this aircraft type
Origin: KFAT Fresno Yosemite Intl
United States
Destination: KSBA Santa Barbara Mun
United States
More flights between these airports :: More routes between these airports
Route: +KWANG
File this flight plan on PilotEdge
Remarks:
Altitude:
(Current/Filed)
19,000ft
Speed:
(Current/Filed)
294kts
Departed: 12-Aug-20 08:05 AM
Arrived: 12-Aug-20 09:01 AM
Distance/Time
Traveled:
141nm/0:56
Distance/Time
To Go:
Arrived

Flight Plot

Page will automatically refresh every two minutes.

Flight plan parsing failed; only flown route is shown


Map Options




Map Legend


Flown Route
Filed Route
Departure Airport
Arrival Airport
Navaid (VOR, NDB)
Fix

Horizontal Profiles

Position Reports

Time Latitude Longitude Heading Altitude Ground
Speed
12-Aug-20 07:24 36.777908 -119.730045 34 334ft 0kts
12-Aug-20 07:25 36.777908 -119.730045 34 334ft 0kts
12-Aug-20 07:26 36.777908 -119.730045 34 334ft 0kts
12-Aug-20 07:27 36.777908 -119.730045 34 334ft 0kts
12-Aug-20 07:28 36.777908 -119.730045 34 334ft 0kts
12-Aug-20 07:29 36.777908 -119.730045 34 334ft 0kts
12-Aug-20 07:30 36.777908 -119.730045 34 334ft 0kts
12-Aug-20 07:31 36.777908 -119.730045 34 334ft 0kts
12-Aug-20 07:32 36.777908 -119.730045 34 334ft 0kts
12-Aug-20 07:33 36.777908 -119.730045 34 334ft 0kts
12-Aug-20 07:34 36.777908 -119.730045 34 334ft 0kts
12-Aug-20 07:35 36.777908 -119.730045 34 334ft 0kts
12-Aug-20 07:36 36.777908 -119.730045 34 334ft 0kts
12-Aug-20 07:37 36.777908 -119.730045 34 334ft 0kts
12-Aug-20 07:38 36.777908 -119.730045 34 334ft 0kts
12-Aug-20 07:39 36.777908 -119.730045 34 334ft 0kts
12-Aug-20 07:41 36.777908 -119.730045 34 334ft 0kts
12-Aug-20 07:42 36.777908 -119.730045 34 334ft 0kts
12-Aug-20 07:43 36.777908 -119.730045 34 334ft 0kts
12-Aug-20 07:44 36.777909 -119.730044 34 334ft 0kts
12-Aug-20 07:45 36.777909 -119.730044 34 334ft 0kts
12-Aug-20 07:46 36.777909 -119.730044 34 334ft 0kts
12-Aug-20 07:47 36.777909 -119.730044 34 334ft 0kts
12-Aug-20 07:48 36.777909 -119.730044 34 334ft 0kts
12-Aug-20 07:49 36.777909 -119.730044 34 334ft 0kts
12-Aug-20 07:50 36.777909 -119.730044 34 334ft 0kts
12-Aug-20 07:51 36.777909 -119.730044 34 334ft 0kts
12-Aug-20 07:52 36.777909 -119.730044 34 334ft 0kts
12-Aug-20 07:53 36.777909 -119.730044 34 334ft 0kts
12-Aug-20 07:54 36.777909 -119.730044 34 334ft 0kts
12-Aug-20 07:55 36.777909 -119.730044 34 334ft 0kts
12-Aug-20 07:56 36.777908 -119.730044 34 334ft 0kts
12-Aug-20 07:57 36.778582 -119.728807 126 334ft 12kts
12-Aug-20 07:58 36.775577 -119.723403 73 334ft 8kts
12-Aug-20 07:58 36.774427 -119.719816 125 334ft 23kts
12-Aug-20 08:00 36.770138 -119.712293 123 334ft 22kts
12-Aug-20 08:01 36.767598 -119.705793 90 334ft 21kts
12-Aug-20 08:01 36.768235 -119.704247 34 334ft 0kts
12-Aug-20 08:03 36.768234 -119.704248 34 334ft 0kts
12-Aug-20 08:03 36.768234 -119.704248 34 334ft 0kts
12-Aug-20 08:04 36.773728 -119.712141 303 365ft 121kts
12-Aug-20 08:05 36.794853 -119.754844 304 2108ft 173kts
12-Aug-20 08:06 36.823319 -119.806108 304 4185ft 184kts
12-Aug-20 08:07 36.852554 -119.859620 304 6115ft 188kts
12-Aug-20 08:08 36.861541 -119.916444 215 7756ft 189kts
12-Aug-20 08:09 36.816796 -119.894937 142 9310ft 188kts
12-Aug-20 08:10 36.773447 -119.851488 139 10023ft 226kts
12-Aug-20 08:11 36.726217 -119.798584 140 11522ft 200kts
12-Aug-20 08:12 36.685978 -119.753903 141 12965ft 195kts
12-Aug-20 08:13 36.645395 -119.709169 142 14279ft 196kts
12-Aug-20 08:14 36.602822 -119.668587 164 15634ft 188kts
12-Aug-20 08:15 36.554608 -119.643403 163 16919ft 188kts
12-Aug-20 08:16 36.506643 -119.618469 164 18194ft 187kts
12-Aug-20 08:17 36.457692 -119.593279 164 19003ft 207kts
12-Aug-20 08:18 36.398958 -119.563173 163 18993ft 244kts
12-Aug-20 08:19 36.334540 -119.529991 162 18985ft 257kts
12-Aug-20 08:20 36.267512 -119.495645 162 18984ft 263kts
12-Aug-20 08:21 36.199607 -119.460940 162 18984ft 265kts
12-Aug-20 08:22 36.131189 -119.425858 162 18985ft 267kts
12-Aug-20 08:23 36.062437 -119.390785 162 18988ft 268kts
12-Aug-20 08:24 35.993540 -119.355430 162 18994ft 268kts
12-Aug-20 08:25 35.924826 -119.320262 163 18988ft 266kts
12-Aug-20 08:26 35.863892 -119.289097 163 18992ft 266kts
12-Aug-20 08:27 35.795547 -119.254318 163 18990ft 266kts
12-Aug-20 08:28 35.726993 -119.219899 163 18991ft 266kts
12-Aug-20 08:29 35.658500 -119.185348 162 18990ft 266kts
12-Aug-20 08:30 35.592052 -119.196053 201 18982ft 253kts
12-Aug-20 08:31 35.522780 -119.214608 193 18987ft 255kts
12-Aug-20 08:32 35.453219 -119.231223 194 18984ft 255kts
12-Aug-20 08:33 35.383534 -119.248637 194 18981ft 255kts
12-Aug-20 08:34 35.313998 -119.266060 194 18978ft 255kts
12-Aug-20 08:35 35.244417 -119.283486 193 18997ft 255kts
12-Aug-20 08:36 35.174724 -119.300916 193 18996ft 256kts
12-Aug-20 08:37 35.109209 -119.317255 193 18993ft 256kts
12-Aug-20 08:38 35.039406 -119.334623 193 18988ft 256kts
12-Aug-20 08:39 34.969514 -119.351996 193 18983ft 256kts
12-Aug-20 08:40 34.899721 -119.369267 193 18693ft 266kts
12-Aug-20 08:41 34.842365 -119.383668 192 17972ft 284kts
12-Aug-20 08:42 34.768408 -119.402116 192 17073ft 295kts
12-Aug-20 08:43 34.687162 -119.421870 192 16090ft 300kts
12-Aug-20 08:44 34.606714 -119.441427 192 15096ft 296kts
12-Aug-20 08:45 34.527037 -119.461302 193 14105ft 293kts
12-Aug-20 08:46 34.450229 -119.480223 192 13111ft 284kts
12-Aug-20 08:47 34.377424 -119.505852 214 12103ft 275kts
12-Aug-20 08:48 34.342892 -119.584771 253 11100ft 277kts
12-Aug-20 08:49 34.323250 -119.675652 253 10009ft 280kts
12-Aug-20 08:50 34.303543 -119.765700 253 8918ft 280kts
12-Aug-20 08:51 34.283731 -119.856401 255 7816ft 280kts
12-Aug-20 08:52 34.274818 -119.948535 263 6716ft 276kts
12-Aug-20 08:53 34.268677 -120.039642 276 5611ft 278kts
12-Aug-20 08:54 34.323600 -120.086953 359 4522ft 262kts
12-Aug-20 08:55 34.393136 -120.087338 8 3474ft 239kts
12-Aug-20 08:56 34.423729 -120.036087 88 2976ft 206kts
12-Aug-20 08:57 34.424991 -119.970198 89 1828ft 189kts
12-Aug-20 08:58 34.426285 -119.911413 89 965ft 165kts
12-Aug-20 08:59 34.427267 -119.865762 89 224ft 109kts
12-Aug-20 09:00 34.427788 -119.840721 86 15ft 32kts
12-Aug-20 09:01 34.428746 -119.838949 7 15ft 0kts
12-Aug-20 09:02 34.428776 -119.838950 354 15ft 3kts
12-Aug-20 09:03 34.431172 -119.838309 71 15ft 16kts
12-Aug-20 09:04 34.432945 -119.835982 299 15ft 3kts
12-Aug-20 09:05 34.432920 -119.836047 202 15ft 0kts
12-Aug-20 09:06 34.432920 -119.836047 202 15ft 0kts
12-Aug-20 09:07 34.432920 -119.836047 202 15ft 0kts
12-Aug-20 09:08 34.432920 -119.836047 202 15ft 0kts
12-Aug-20 09:09 34.432920 -119.836047 202 15ft 0kts

Navigation Log

Ident Type
Flight plan parsing failed, navigation log unavailable